createdAt,value
2022-09-15T00:01:57.041Z,2.38
2022-09-15T00:04:43.930Z,2.20
2022-09-15T00:07:31.615Z,1.80
2022-09-15T00:10:18.797Z,1.40
2022-09-15T00:13:05.842Z,1.63
2022-09-15T00:15:53.248Z,1.90
2022-09-15T00:18:40.603Z,1.88
2022-09-15T00:21:31.049Z,1.73
2022-09-15T00:24:18.255Z,2.28
2022-09-15T00:27:05.158Z,1.50
2022-09-15T00:29:52.393Z,1.23
2022-09-15T00:32:39.334Z,1.30
2022-09-15T00:35:26.312Z,1.50
2022-09-15T00:38:14.440Z,1.48
2022-09-15T00:41:02.495Z,1.30
2022-09-15T00:44:00.095Z,1.45
2022-09-15T00:47:15.238Z,1.40
2022-09-15T00:50:07.566Z,1.38
2022-09-15T00:53:01.983Z,1.20
2022-09-15T00:55:50.635Z,1.45
2022-09-15T00:58:47.896Z,1.40
2022-09-15T01:01:35.724Z,1.73
2022-09-15T01:04:22.796Z,1.85
2022-09-15T01:07:14.984Z,1.67
2022-09-15T01:10:12.287Z,1.48
2022-09-15T01:13:02.937Z,1.38
2022-09-15T01:15:54.791Z,1.75
2022-09-15T01:22:00.359Z,1.80
2022-09-15T01:25:08.930Z,1.63
2022-09-15T01:28:10.687Z,1.70
2022-09-15T01:31:15.937Z,1.60
2022-09-15T01:34:09.026Z,1.85
2022-09-15T01:37:06.179Z,1.90
2022-09-15T01:39:54.526Z,1.50
2022-09-15T01:42:44.054Z,1.50
2022-09-15T01:45:34.038Z,1.80
2022-09-15T01:48:24.652Z,2.03
2022-09-15T01:51:11.802Z,1.98
2022-09-15T01:54:01.995Z,2.00
2022-09-15T01:56:49.144Z,2.17
2022-09-15T01:59:36.068Z,2.03
2022-09-15T02:02:29.567Z,2.22
2022-09-15T02:05:30.218Z,1.80
2022-09-15T02:08:40.130Z,2.20
2022-09-15T02:11:29.030Z,1.80
2022-09-15T02:18:22.815Z,2.33
2022-09-15T02:21:19.002Z,1.60
2022-09-15T02:24:12.195Z,2.10
2022-09-15T02:27:01.178Z,2.15
2022-09-15T02:29:49.278Z,2.15
2022-09-15T02:32:38.534Z,1.90
2022-09-15T02:38:15.194Z,2.00
2022-09-15T02:41:02.830Z,1.75
2022-09-15T02:43:50.966Z,2.28
2022-09-15T02:46:39.346Z,2.25
2022-09-15T02:49:26.412Z,2.22
2022-09-15T02:52:13.771Z,2.20
2022-09-15T02:55:01.009Z,2.10
2022-09-15T02:57:48.300Z,2.30
2022-09-15T03:00:35.254Z,1.88
2022-09-15T03:03:22.351Z,2.88
2022-09-15T03:06:19.939Z,2.67
2022-09-15T03:09:08.355Z,2.65
2022-09-15T03:11:55.239Z,2.13
2022-09-15T03:14:42.260Z,2.40
2022-09-15T03:17:29.129Z,2.17
2022-09-15T03:20:19.422Z,2.40
2022-09-15T03:23:06.269Z,2.20
2022-09-15T03:25:53.335Z,2.80
2022-09-15T03:28:40.534Z,2.35
2022-09-15T03:31:27.880Z,2.20
2022-09-15T03:34:14.805Z,2.08
2022-09-15T03:37:01.894Z,1.90
2022-09-15T03:39:49.094Z,3.80
2022-09-15T03:42:36.087Z,2.55
2022-09-15T03:45:23.022Z,2.13
2022-09-15T03:48:10.181Z,2.63
2022-09-15T03:50:57.129Z,2.50
2022-09-15T03:53:44.342Z,2.70
2022-09-15T03:56:33.023Z,2.53
2022-09-15T03:59:21.010Z,2.20
2022-09-15T04:02:08.307Z,2.47
2022-09-15T04:04:55.475Z,2.75
2022-09-15T04:07:42.359Z,2.42
2022-09-15T04:10:29.443Z,2.17
2022-09-15T04:13:16.313Z,2.20
2022-09-15T04:16:15.370Z,2.72
2022-09-15T04:19:02.435Z,2.28
2022-09-15T04:21:49.475Z,2.35
2022-09-15T04:24:36.435Z,2.70
2022-09-15T04:27:23.542Z,2.50
2022-09-15T04:30:10.811Z,2.55
2022-09-15T04:32:57.795Z,2.67
2022-09-15T04:35:44.676Z,2.50
2022-09-15T04:38:31.885Z,2.50
2022-09-15T04:41:19.570Z,2.60
2022-09-15T04:44:06.545Z,2.70
2022-09-15T04:46:54.698Z,2.50
2022-09-15T04:49:41.718Z,2.40
2022-09-15T04:52:28.592Z,2.70
2022-09-15T04:55:15.639Z,2.63
2022-09-15T04:58:03.175Z,2.60
2022-09-15T05:00:50.295Z,2.75
2022-09-15T05:03:38.466Z,2.67
2022-09-15T05:06:27.494Z,2.70
2022-09-15T05:09:14.503Z,2.63
2022-09-15T05:12:01.698Z,2.80
2022-09-15T05:14:48.559Z,2.95
2022-09-15T05:17:35.648Z,3.00
2022-09-15T05:20:22.750Z,2.80
2022-09-15T05:23:10.779Z,3.20
2022-09-15T05:25:58.737Z,3.08
2022-09-15T05:28:48.078Z,2.85
2022-09-15T05:31:35.220Z,2.80
2022-09-15T05:34:22.266Z,2.70
2022-09-15T05:37:10.374Z,2.88
2022-09-15T05:39:59.689Z,3.05
2022-09-15T05:42:46.552Z,2.70
2022-09-15T05:45:33.701Z,3.05
2022-09-15T05:48:20.638Z,2.70
2022-09-15T05:51:08.161Z,2.88
2022-09-15T05:53:55.098Z,3.13
2022-09-15T05:56:42.226Z,2.78
2022-09-15T05:59:29.169Z,3.40
2022-09-15T06:02:16.277Z,3.17
2022-09-15T06:05:03.582Z,3.35
2022-09-15T06:07:54.073Z,3.50
2022-09-15T06:10:40.966Z,3.42
2022-09-15T06:13:28.006Z,3.40
2022-09-15T06:16:20.152Z,3.05
2022-09-15T06:19:07.317Z,3.13
2022-09-15T06:21:54.244Z,3.10
2022-09-15T06:24:41.484Z,3.58
2022-09-15T06:27:28.331Z,3.38
2022-09-15T06:30:15.660Z,3.60
2022-09-15T06:33:02.571Z,4.30
2022-09-15T06:35:50.012Z,4.05
2022-09-15T06:38:37.507Z,4.47
2022-09-15T06:41:24.701Z,4.15
2022-09-15T06:44:11.639Z,4.00
2022-09-15T06:46:58.779Z,4.07
2022-09-15T06:49:45.794Z,4.40
2022-09-15T06:52:32.935Z,4.50
2022-09-15T06:55:19.861Z,4.15
2022-09-15T06:58:06.884Z,4.30
2022-09-15T07:00:53.787Z,5.00
2022-09-15T07:03:43.665Z,5.20
2022-09-15T07:06:32.847Z,5.20
2022-09-15T07:12:07.092Z,5.70
2022-09-15T07:14:54.225Z,5.82
2022-09-15T07:17:41.095Z,5.65
2022-09-15T07:20:28.159Z,4.88
2022-09-15T07:23:15.305Z,5.88
2022-09-15T07:26:14.757Z,5.03
2022-09-15T07:29:04.817Z,5.30
2022-09-15T07:31:52.220Z,4.97
2022-09-15T07:34:39.099Z,4.93
2022-09-15T07:37:26.231Z,5.10
2022-09-15T07:40:13.419Z,4.72
2022-09-15T07:43:00.502Z,4.68
2022-09-15T07:45:47.473Z,4.82
2022-09-15T07:48:34.633Z,4.80
2022-09-15T07:51:21.579Z,4.90
2022-09-15T07:54:08.791Z,4.70
2022-09-15T07:56:55.660Z,4.68
2022-09-15T07:59:42.699Z,5.28
2022-09-15T08:02:29.784Z,4.93
2022-09-15T08:05:16.898Z,5.18
2022-09-15T08:08:04.022Z,5.07
2022-09-15T08:10:50.977Z,4.72
2022-09-15T08:13:38.073Z,5.10
2022-09-15T08:16:25.250Z,4.78
2022-09-15T08:19:12.251Z,4.10
2022-09-15T08:21:59.595Z,4.45
2022-09-15T08:24:46.487Z,4.60
2022-09-15T08:27:33.557Z,4.90
2022-09-15T08:30:21.350Z,3.97
2022-09-15T08:33:08.334Z,4.65
2022-09-15T08:36:00.125Z,4.25
2022-09-15T08:38:47.509Z,4.55
2022-09-15T08:41:41.600Z,4.63
2022-09-15T08:44:47.105Z,4.30
2022-09-15T08:47:43.170Z,5.10
2022-09-15T08:50:40.985Z,4.43
2022-09-15T08:53:43.419Z,4.35
2022-09-15T08:56:30.720Z,4.30
2022-09-15T08:59:19.590Z,4.30
2022-09-15T09:02:12.558Z,3.90
2022-09-15T09:05:02.094Z,3.75
2022-09-15T09:08:09.698Z,3.95
2022-09-15T09:14:50.138Z,4.18
2022-09-15T09:18:11.997Z,3.40
2022-09-15T09:21:13.208Z,3.95
2022-09-15T09:24:03.395Z,2.97
2022-09-15T09:26:54.548Z,3.60
2022-09-15T09:29:49.993Z,3.70
2022-09-15T09:32:46.211Z,4.45
2022-09-15T09:35:45.061Z,3.22
2022-09-15T09:38:36.330Z,3.25
2022-09-15T09:41:35.804Z,3.03
2022-09-15T09:44:32.046Z,2.50
2022-09-15T09:47:20.053Z,3.15
2022-09-15T09:50:43.316Z,3.40
2022-09-15T09:53:33.670Z,3.00
2022-09-15T09:56:25.930Z,3.28
2022-09-15T09:59:31.272Z,3.13
2022-09-15T10:02:24.947Z,2.90
2022-09-15T10:05:19.450Z,3.25
2022-09-15T10:08:06.915Z,2.85
2022-09-15T10:10:56.274Z,2.75
2022-09-15T10:13:54.675Z,4.30
2022-09-15T10:16:41.955Z,3.13
2022-09-15T10:19:32.237Z,2.83
2022-09-15T10:22:28.418Z,2.50
2022-09-15T10:25:21.376Z,2.58
2022-09-15T10:28:16.138Z,3.40
2022-09-15T10:31:11.413Z,3.13
2022-09-15T10:33:58.367Z,3.28
2022-09-15T10:36:45.956Z,3.40
2022-09-15T10:39:48.493Z,3.22
2022-09-15T10:42:47.276Z,3.15
2022-09-15T10:45:39.821Z,3.72
2022-09-15T10:48:31.945Z,4.13
2022-09-15T10:51:34.117Z,3.67
2022-09-15T10:54:58.688Z,2.78
2022-09-15T10:58:00.140Z,2.80
2022-09-15T11:01:02.234Z,2.67
2022-09-15T11:04:07.049Z,3.10
2022-09-15T11:07:19.588Z,2.88
2022-09-15T11:10:21.193Z,2.42
2022-09-15T11:13:30.844Z,3.17
2022-09-15T11:16:34.108Z,2.85
2022-09-15T11:19:36.109Z,4.60
2022-09-15T11:22:31.089Z,2.47
2022-09-15T11:25:23.174Z,2.55
2022-09-15T11:28:49.213Z,2.60
2022-09-15T11:31:43.084Z,4.38
2022-09-15T11:34:49.071Z,3.05
2022-09-15T11:37:43.580Z,2.70
2022-09-15T11:40:42.475Z,2.70
2022-09-15T11:43:52.442Z,2.80
2022-09-15T11:47:05.265Z,2.70
2022-09-15T11:50:02.000Z,2.22
2022-09-15T11:53:00.763Z,2.30
2022-09-15T11:55:53.924Z,2.63
2022-09-15T11:59:02.150Z,2.65
2022-09-15T12:02:19.830Z,2.30
2022-09-15T12:05:17.877Z,2.50
2022-09-15T12:08:16.917Z,2.58
2022-09-15T12:11:09.388Z,2.20
2022-09-15T12:13:57.269Z,1.67
2022-09-15T12:16:45.059Z,1.65
2022-09-15T12:19:48.889Z,1.70
2022-09-15T12:22:52.174Z,1.80
2022-09-15T12:25:55.768Z,1.60
2022-09-15T12:28:57.295Z,1.80
2022-09-15T12:31:45.326Z,1.48
2022-09-15T12:34:38.415Z,1.40
2022-09-15T12:37:29.765Z,1.67
2022-09-15T12:40:34.915Z,1.10
2022-09-15T12:43:23.643Z,1.80
2022-09-15T12:46:17.909Z,1.10
2022-09-15T12:49:05.020Z,0.98
2022-09-15T12:51:52.561Z,0.95
2022-09-15T12:54:43.175Z,1.00
2022-09-15T12:57:36.424Z,1.15
2022-09-15T13:00:34.235Z,1.48
2022-09-15T13:06:34.612Z,0.93
2022-09-15T13:09:28.741Z,1.10
2022-09-15T13:12:17.838Z,1.40
2022-09-15T13:15:07.791Z,0.82
2022-09-15T13:17:56.144Z,1.13
2022-09-15T13:20:54.029Z,0.63
2022-09-15T13:23:43.854Z,1.00
2022-09-15T13:26:32.099Z,1.10
2022-09-15T13:29:23.269Z,1.15
2022-09-15T13:32:32.626Z,0.80
2022-09-15T13:36:01.839Z,0.77
2022-09-15T13:39:15.802Z,0.57
2022-09-15T13:45:29.459Z,0.75
2022-09-15T13:48:42.897Z,0.88
2022-09-15T13:51:31.453Z,0.88
2022-09-15T13:54:19.625Z,0.82
2022-09-15T13:57:08.220Z,0.90
2022-09-15T13:59:55.180Z,0.90
2022-09-15T14:02:45.603Z,0.63
2022-09-15T14:05:34.994Z,0.98
2022-09-15T14:08:32.493Z,0.80
2022-09-15T14:11:27.995Z,0.90
2022-09-15T14:14:42.366Z,1.05
2022-09-15T14:17:31.661Z,0.73
2022-09-15T14:20:31.241Z,0.93
2022-09-15T14:23:18.540Z,0.98
2022-09-15T14:26:05.718Z,0.90
2022-09-15T14:29:00.005Z,0.85
2022-09-15T14:31:47.698Z,0.85
2022-09-15T14:34:37.315Z,0.95
2022-09-15T14:37:28.939Z,0.90
2022-09-15T14:40:35.540Z,1.13
2022-09-15T14:43:32.907Z,0.75
2022-09-15T14:46:21.019Z,0.70
2022-09-15T14:49:11.744Z,0.95
2022-09-15T14:52:01.172Z,0.95
2022-09-15T14:54:49.035Z,1.00
2022-09-15T14:57:40.949Z,0.80
2022-09-15T15:00:32.089Z,0.80
2022-09-15T15:03:27.619Z,0.80
2022-09-15T15:06:35.640Z,0.80
2022-09-15T15:09:47.004Z,0.80
2022-09-15T15:12:37.254Z,0.88
2022-09-15T15:15:24.632Z,0.90
2022-09-15T15:18:37.713Z,1.33
2022-09-15T15:21:42.011Z,0.95
2022-09-15T15:24:29.539Z,1.10
2022-09-15T15:27:38.068Z,1.10
2022-09-15T15:30:26.722Z,1.02
2022-09-15T15:33:20.151Z,1.10
2022-09-15T15:36:11.936Z,1.00
2022-09-15T15:39:01.832Z,0.93
2022-09-15T15:45:02.215Z,0.82
2022-09-15T15:47:49.229Z,1.00
2022-09-15T15:50:36.886Z,0.88
2022-09-15T15:53:24.293Z,1.00
2022-09-15T15:56:12.986Z,1.33
2022-09-15T15:59:00.297Z,0.90
2022-09-15T16:01:53.114Z,0.80
2022-09-15T16:04:40.132Z,0.88
2022-09-15T16:07:31.124Z,0.90
2022-09-15T16:10:23.493Z,1.10
2022-09-15T16:13:14.654Z,1.10
2022-09-15T16:16:02.523Z,0.85
2022-09-15T16:18:50.171Z,0.70
2022-09-15T16:21:42.112Z,0.93
2022-09-15T16:24:29.188Z,0.98
2022-09-15T16:27:17.913Z,0.70
2022-09-15T16:30:08.352Z,0.90
2022-09-15T16:32:55.524Z,0.85
2022-09-15T16:35:51.131Z,1.00
2022-09-15T16:38:38.389Z,0.80
2022-09-15T16:41:28.133Z,0.70
2022-09-15T16:44:18.914Z,0.98
2022-09-15T16:47:06.909Z,0.90
2022-09-15T16:49:53.797Z,0.88
2022-09-15T16:52:40.700Z,1.38
2022-09-15T16:55:31.303Z,1.30
2022-09-15T16:58:19.888Z,1.13
2022-09-15T17:01:07.630Z,1.40
2022-09-15T17:03:54.815Z,1.58
2022-09-15T17:06:42.274Z,1.60
2022-09-15T17:09:29.262Z,1.90
2022-09-15T17:12:16.209Z,2.15
2022-09-15T17:15:16.849Z,1.02
2022-09-15T17:18:04.207Z,1.20
2022-09-15T17:20:51.907Z,1.30
2022-09-15T17:23:40.956Z,1.67
2022-09-15T17:29:18.606Z,1.48
2022-09-15T17:32:06.054Z,1.27
2022-09-15T17:34:53.085Z,1.35
2022-09-15T17:37:39.924Z,1.52
2022-09-15T17:40:27.410Z,1.63
2022-09-15T17:43:18.135Z,1.40
2022-09-15T17:46:05.205Z,1.45
2022-09-15T17:48:52.487Z,1.90
2022-09-15T17:51:39.463Z,1.70
2022-09-15T17:54:26.369Z,1.90
2022-09-15T17:57:13.326Z,1.73
2022-09-15T18:00:00.272Z,1.50
2022-09-15T18:02:53.114Z,1.40
2022-09-15T18:05:40.066Z,1.70
2022-09-15T18:08:27.577Z,2.10
2022-09-15T18:11:15.445Z,1.60
2022-09-15T18:14:02.415Z,1.67
2022-09-15T18:16:49.865Z,1.73
2022-09-15T18:19:36.807Z,1.33
2022-09-15T18:22:24.050Z,1.70
2022-09-15T18:25:16.722Z,2.05
2022-09-15T18:28:04.132Z,1.83
2022-09-15T18:30:51.179Z,1.80
2022-09-15T18:33:38.071Z,1.95
2022-09-15T18:36:24.990Z,1.42
2022-09-15T18:39:12.015Z,1.95
2022-09-15T18:41:59.243Z,2.05
2022-09-15T18:44:46.126Z,2.33
2022-09-15T18:47:33.277Z,2.20
2022-09-15T18:50:22.613Z,2.00
2022-09-15T18:53:09.945Z,1.55
2022-09-15T18:55:56.907Z,1.40
2022-09-15T18:58:43.850Z,1.40
2022-09-15T19:01:30.834Z,1.52
2022-09-15T19:04:18.013Z,1.83
2022-09-15T19:07:05.017Z,1.73
2022-09-15T19:09:56.385Z,1.63
2022-09-15T19:12:43.933Z,1.17
2022-09-15T19:15:33.763Z,1.40
2022-09-15T19:18:21.300Z,1.10
2022-09-15T19:21:10.864Z,1.65
2022-09-15T19:23:58.639Z,1.67
2022-09-15T19:26:47.212Z,1.58
2022-09-15T19:29:36.137Z,1.40
2022-09-15T19:32:23.238Z,1.40
2022-09-15T19:35:11.361Z,1.60
2022-09-15T19:37:58.462Z,1.45
2022-09-15T19:40:46.082Z,2.03
2022-09-15T19:43:35.362Z,1.75
2022-09-15T19:46:24.746Z,1.65
2022-09-15T19:49:12.080Z,1.35
2022-09-15T19:51:58.997Z,1.90
2022-09-15T19:54:47.633Z,2.38
2022-09-15T19:57:34.694Z,2.20
2022-09-15T20:00:21.726Z,2.17
2022-09-15T20:03:08.736Z,1.73
2022-09-15T20:05:57.919Z,2.20
2022-09-15T20:08:47.104Z,2.63
2022-09-15T20:11:35.159Z,2.08
2022-09-15T20:14:22.078Z,2.00
2022-09-15T20:17:09.050Z,2.30
2022-09-15T20:19:56.236Z,2.42
2022-09-15T20:22:43.150Z,2.47
2022-09-15T20:25:30.104Z,2.25
2022-09-15T20:28:17.442Z,2.40
2022-09-15T20:34:16.508Z,2.42
2022-09-15T20:37:03.412Z,2.10
2022-09-15T20:39:51.384Z,2.17
2022-09-15T20:42:38.417Z,2.38
2022-09-15T20:45:25.333Z,2.08
2022-09-15T20:48:12.282Z,2.47
2022-09-15T20:51:12.401Z,2.30
2022-09-15T20:54:01.698Z,2.60
2022-09-15T20:56:48.678Z,2.05
2022-09-15T20:59:36.849Z,2.35
2022-09-15T21:02:23.845Z,1.83
2022-09-15T21:05:10.902Z,1.90
2022-09-15T21:07:57.770Z,2.75
2022-09-15T21:10:45.554Z,1.80
2022-09-15T21:13:37.176Z,2.25
2022-09-15T21:16:27.114Z,2.35
2022-09-15T21:19:14.038Z,2.35
2022-09-15T21:22:01.680Z,2.20
2022-09-15T21:24:48.622Z,2.40
2022-09-15T21:27:35.720Z,2.85
2022-09-15T21:30:22.608Z,2.00
2022-09-15T21:33:09.858Z,2.58
2022-09-15T21:36:11.594Z,2.30
2022-09-15T21:38:59.499Z,2.30
2022-09-15T21:41:46.427Z,2.55
2022-09-15T21:44:33.303Z,2.22
2022-09-15T21:47:20.174Z,2.50
2022-09-15T21:50:07.599Z,2.50
2022-09-15T21:52:54.792Z,2.28
2022-09-15T21:55:42.828Z,2.08
2022-09-15T21:58:39.021Z,2.20
2022-09-15T22:01:31.914Z,1.85
2022-09-15T22:04:18.799Z,2.58
2022-09-15T22:07:06.107Z,2.90
2022-09-15T22:09:53.406Z,2.50
2022-09-15T22:12:40.248Z,2.65
2022-09-15T22:15:27.144Z,3.03
2022-09-15T22:18:13.971Z,2.63
2022-09-15T22:21:08.295Z,2.40
2022-09-15T22:23:56.929Z,2.85
2022-09-15T22:26:43.988Z,2.65
2022-09-15T22:29:30.810Z,2.03
2022-09-15T22:32:17.688Z,2.40
2022-09-15T22:35:05.796Z,2.20
2022-09-15T22:37:52.625Z,2.20
2022-09-15T22:40:39.457Z,1.85
2022-09-15T22:43:26.351Z,2.10
2022-09-15T22:46:14.111Z,1.95
2022-09-15T22:49:01.614Z,2.08
2022-09-15T22:51:48.489Z,2.03
2022-09-15T22:54:35.389Z,2.30
2022-09-15T22:57:22.253Z,2.10
2022-09-15T23:00:10.106Z,1.83
2022-09-15T23:02:56.930Z,2.47
2022-09-15T23:05:43.783Z,2.30
2022-09-15T23:08:30.992Z,2.20
2022-09-15T23:11:17.862Z,1.88
2022-09-15T23:14:04.728Z,2.03
2022-09-15T23:16:51.553Z,2.28
2022-09-15T23:19:38.372Z,2.05
2022-09-15T23:22:25.199Z,2.10
2022-09-15T23:25:12.025Z,2.00
2022-09-15T23:27:58.886Z,2.03
2022-09-15T23:30:45.857Z,2.40
2022-09-15T23:33:33.057Z,2.70
2022-09-15T23:36:19.924Z,2.17
2022-09-15T23:39:06.796Z,2.50
2022-09-15T23:41:53.801Z,2.25
2022-09-15T23:44:40.692Z,2.15
2022-09-15T23:47:27.570Z,2.33
2022-09-15T23:50:14.505Z,2.20
2022-09-15T23:53:01.401Z,2.67
2022-09-15T23:55:48.318Z,3.17
2022-09-15T23:58:35.176Z,2.95
